Kemmerer, Wyoming
Current Conditions -  °F | °C
As of 9:15 AM on Monday 22 Dec 2014 (Local Time) from KEMM Reporting Station
Light Snow Light Snow  
Wind Chill: 17°   Ceiling: 1300
Heat Index: 28°   Visibility: 10mi
Dew Point: 27°   Wind: 14mph
Humidity: 93%   Direction: 280°W
Pressure: 29.88"   Gusts: NA
Location:  41.79°N, 110.54°W
Report Text: KEMM 221615Z AUTO 28012KT 10SM -SN BKN013 BKN019 OVC026 M02/M03 A2988 RMK AO2
Loading
Personal Weather Stations






























Interactive Weather Map New forecast layout! Learn more

10-Day Weather Forecast

Advertisements
Track Severe Weather on mobile